Time;durP1;ratioP1;P1;durP2;ratioP2;P2;SDS_P1;SDS_P2;PMS_P1;PMS_P2;Temp;Humidity;BMP_temperature;BMP_pressure;BME280_temperature;BME280_humidity;BME280_pressure;Samples;Min_cycle;Max_cycle;Signal;HPM_P1;HPM_P2
2022/07/12 00:02:08;;;;;;;3.78;2.75;;;;;;;20.22;58.79;100966.00;5031541;28;20501;-50
2022/07/12 00:04:34;;;;;;;6.05;2.42;;;;;;;20.20;58.77;100967.34;5031939;28;20040;-50
2022/07/12 00:07:00;;;;;;;3.40;2.28;;;;;;;20.15;59.38;100961.88;5031406;28;20490;-50
2022/07/12 00:09:27;;;;;;;4.55;2.35;;;;;;;20.23;58.78;100973.06;5031341;28;20029;-51
2022/07/12 00:11:55;;;;;;;4.95;2.65;;;;;;;20.35;59.22;100958.44;5030928;28;20057;-52
2022/07/12 00:14:21;;;;;;;3.63;2.38;;;;;;;20.19;58.67;100977.41;5023454;28;20033;-53
2022/07/12 00:16:47;;;;;;;4.05;2.60;;;;;;;20.11;59.21;100974.41;5029476;28;20033;-51
2022/07/12 00:19:14;;;;;;;6.07;2.83;;;;;;;19.93;60.16;100959.34;5032474;28;20088;-51
2022/07/12 00:21:40;;;;;;;6.75;2.90;;;;;;;19.95;59.96;100973.50;5028549;28;20116;-48
2022/07/12 00:24:06;;;;;;;5.63;3.25;;;;;;;19.74;60.97;100959.81;5032585;28;20025;-47
2022/07/12 00:26:33;;;;;;;4.90;3.15;;;;;;;19.60;61.29;100966.84;5030782;28;20049;-49
2022/07/12 00:29:00;;;;;;;6.00;2.92;;;;;;;19.73;61.62;100960.91;5030854;28;20489;-51
2022/07/12 00:31:26;;;;;;;4.88;3.15;;;;;;;19.66;60.96;100959.53;5031746;28;20113;-51
2022/07/12 00:33:52;;;;;;;5.90;3.28;;;;;;;19.63;61.96;100958.16;5029833;28;20485;-48
2022/07/12 00:36:19;;;;;;;4.50;3.13;;;;;;;19.59;61.44;100962.47;5030396;28;20025;-47
2022/07/12 00:38:46;;;;;;;7.70;3.55;;;;;;;19.36;62.04;100962.81;5030736;28;20075;-50
2022/07/12 00:41:12;;;;;;;5.30;2.80;;;;;;;19.21;62.57;100945.38;5030133;28;20041;-50
2022/07/12 00:43:38;;;;;;;7.28;3.33;;;;;;;19.20;62.92;100942.91;5030987;28;20021;-46
2022/07/12 00:46:05;;;;;;;4.95;3.47;;;;;;;19.31;63.11;100949.22;5031778;28;20033;-52
2022/07/12 00:48:33;;;;;;;6.13;3.30;;;;;;;19.10;63.38;100940.97;5030344;28;20044;-50
2022/07/12 00:51:01;;;;;;;5.78;3.47;;;;;;;19.04;64.20;100933.84;5030870;28;20029;-56
2022/07/12 00:53:27;;;;;;;8.13;3.55;;;;;;;18.89;64.56;100937.25;5030871;28;20113;-48
2022/07/12 00:55:57;;;;;;;5.93;3.45;;;;;;;19.12;64.08;100936.06;5021505;28;20233;-51
2022/07/12 00:58:24;;;;;;;5.47;3.10;;;;;;;19.01;64.87;100931.66;5031192;28;20458;-47
2022/07/12 01:00:51;;;;;;;8.13;3.58;;;;;;;18.77;64.85;100933.06;5025542;28;20036;-45
2022/07/12 01:03:19;;;;;;;5.68;3.60;;;;;;;18.95;64.69;100930.00;5020599;28;20041;-48
2022/07/12 01:05:45;;;;;;;10.13;4.05;;;;;;;18.82;64.53;100927.69;5027552;28;20044;-46
2022/07/12 01:08:15;;;;;;;7.05;3.72;;;;;;;18.81;64.89;100928.78;5012762;28;20430;-47
2022/07/12 01:10:43;;;;;;;10.20;3.40;;;;;;;18.80;64.67;100919.00;5011105;28;20026;-46
2022/07/12 01:13:10;;;;;;;5.82;3.72;;;;;;;18.54;65.77;100913.31;5022885;28;20057;-47
2022/07/12 01:15:37;;;;;;;4.80;3.35;;;;;;;18.49;65.97;100921.44;5014137;28;20033;-44
2022/07/12 01:18:04;;;;;;;6.60;3.22;;;;;;;18.59;66.06;100915.25;5030118;28;20428;-46
2022/07/12 01:20:32;;;;;;;6.18;3.15;;;;;;;18.57;65.72;100920.94;5030091;28;20029;-46
2022/07/12 01:22:59;;;;;;;7.38;3.55;;;;;;;18.78;65.43;100921.16;5030348;28;20033;-48
2022/07/12 01:25:26;;;;;;;6.82;3.47;;;;;;;18.83;64.91;100919.31;5030567;28;20078;-48
2022/07/12 01:27:52;;;;;;;9.40;4.13;;;;;;;18.83;65.44;100911.19;5030092;28;20542;-47
2022/07/12 01:30:19;;;;;;;6.32;3.45;;;;;;;18.79;65.76;100917.38;5012333;28;20083;-48
2022/07/12 01:32:45;;;;;;;5.93;3.20;;;;;;;18.87;64.93;100917.69;5027746;28;20026;-46
2022/07/12 01:35:13;;;;;;;6.03;3.22;;;;;;;18.83;64.62;100927.44;5030627;28;20037;-48
2022/07/12 01:37:42;;;;;;;7.25;3.42;;;;;;;18.72;65.45;100925.72;5030820;28;20030;-48
2022/07/12 01:40:13;;;;;;;6.50;3.50;;;;;;;18.76;65.38;100926.00;5029033;28;20029;-51
2022/07/12 01:42:40;;;;;;;5.78;3.47;;;;;;;18.84;65.48;100912.00;5031577;28;20021;-44
2022/07/12 01:45:07;;;;;;;7.65;3.42;;;;;;;18.42;66.17;100918.91;5028349;28;20029;-45
2022/07/12 01:47:34;;;;;;;6.68;3.40;;;;;;;18.30;66.51;100912.81;5031307;28;20116;-48
2022/07/12 01:50:01;;;;;;;8.13;3.50;;;;;;;18.23;67.23;100914.09;5030189;28;20029;-47
2022/07/12 01:52:28;;;;;;;5.28;2.67;;;;;;;18.22;67.43;100920.59;5029967;28;20509;-47
2022/07/12 01:54:55;;;;;;;5.65;2.97;;;;;;;18.15;67.04;100905.34;5031057;28;20034;-47
2022/07/12 01:57:21;;;;;;;10.05;3.50;;;;;;;18.29;67.30;100908.47;5028345;28;20490;-47
2022/07/12 01:59:48;;;;;;;8.40;3.55;;;;;;;18.23;67.39;100911.41;5031205;28;20075;-44
2022/07/12 02:02:15;;;;;;;7.45;3.45;;;;;;;18.39;67.21;100905.88;5015120;28;20025;-47
2022/07/12 02:04:41;;;;;;;15.60;3.88;;;;;;;18.42;67.26;100912.66;5011526;28;20030;-44
2022/07/12 02:07:07;;;;;;;8.10;3.50;;;;;;;18.40;66.84;100912.13;5013676;28;20053;-45
2022/07/12 02:09:33;;;;;;;6.70;3.70;;;;;;;18.12;67.00;100919.41;5014894;28;20458;-44
2022/07/12 02:12:00;;;;;;;8.45;3.90;;;;;;;18.08;67.68;100920.97;5021532;28;20022;-44
2022/07/12 02:14:26;;;;;;;8.40;3.50;;;;;;;17.93;68.09;100921.66;5025970;28;20038;-47
2022/07/12 02:16:53;;;;;;;13.13;3.85;;;;;;;17.80;68.65;100924.72;5028074;28;20030;-43
2022/07/12 02:19:19;;;;;;;7.50;3.35;;;;;;;17.57;69.79;100931.16;5020291;28;20037;-46
2022/07/12 02:21:45;;;;;;;8.75;3.40;;;;;;;17.70;69.56;100935.38;5014609;28;20135;-45
2022/07/12 02:24:11;;;;;;;5.78;3.45;;;;;;;17.90;69.08;100924.03;5015043;28;20048;-47
2022/07/12 02:26:38;;;;;;;9.93;3.38;;;;;;;17.97;68.54;100930.06;5014547;28;20041;-47
2022/07/12 02:29:06;;;;;;;8.68;3.55;;;;;;;18.05;68.76;100926.13;5028210;28;20436;-44
2022/07/12 02:31:35;;;;;;;9.70;3.40;;;;;;;18.50;67.02;100939.31;5032336;28;20060;-43
2022/07/12 02:34:01;;;;;;;5.88;3.20;;;;;;;18.87;65.26;100944.81;5034585;28;20068;-46
2022/07/12 02:36:28;;;;;;;7.53;3.05;;;;;;;19.06;63.93;100942.56;5034034;28;20104;-48
2022/07/12 02:38:54;;;;;;;5.90;3.25;;;;;;;19.01;64.10;100939.78;5034207;28;20135;-44
2022/07/12 02:41:20;;;;;;;6.93;2.95;;;;;;;18.80;64.66;100944.22;5034425;28;20104;-44
2022/07/12 02:43:46;;;;;;;9.30;3.28;;;;;;;19.11;64.16;100942.59;5016906;28;20030;-46
2022/07/12 02:46:13;;;;;;;7.40;2.65;;;;;;;19.15;63.65;100951.81;5026037;28;20120;-45
2022/07/12 02:48:40;;;;;;;5.68;2.92;;;;;;;19.17;63.84;100946.16;5028443;28;20021;-48
2022/07/12 02:51:07;;;;;;;6.35;2.88;;;;;;;19.03;64.24;100948.47;5031565;28;20113;-45
2022/07/12 02:53:34;;;;;;;7.45;3.20;;;;;;;18.58;65.80;100955.09;5022389;28;20025;-45
2022/07/12 02:56:01;;;;;;;7.85;3.60;;;;;;;18.45;66.34;100952.81;5032306;28;20462;-47
2022/07/12 02:58:27;;;;;;;6.53;3.20;;;;;;;18.10;67.09;100962.19;5032006;28;20040;-43
2022/07/12 03:00:53;;;;;;;7.95;3.30;;;;;;;17.85;68.57;100953.75;5014354;28;20030;-44
2022/07/12 03:03:20;;;;;;;6.32;3.45;;;;;;;17.53;69.57;100962.50;5028478;28;20053;-45
2022/07/12 03:05:47;;;;;;;5.93;3.20;;;;;;;17.40;70.00;100960.16;5018625;28;20092;-49
2022/07/12 03:08:14;;;;;;;7.28;3.30;;;;;;;17.33;70.31;100964.91;5034189;28;20033;-49
2022/07/12 03:10:40;;;;;;;6.25;2.83;;;;;;;17.17;70.55;100977.38;5018348;28;20112;-49
2022/07/12 03:13:06;;;;;;;6.38;3.00;;;;;;;17.04;70.95;100975.81;5017635;28;20033;-49
2022/07/12 03:15:33;;;;;;;5.63;3.05;;;;;;;16.73;72.42;100977.19;5025371;28;20037;-49
2022/07/12 03:18:01;;;;;;;9.77;3.50;;;;;;;16.67;73.01;100978.13;5030064;28;20104;-49
2022/07/12 03:20:29;;;;;;;6.10;2.97;;;;;;;16.56;73.01;100984.41;5032610;28;20029;-43
2022/07/12 03:22:55;;;;;;;6.07;2.92;;;;;;;16.56;73.48;100990.63;5031660;28;20034;-46
2022/07/12 03:25:22;;;;;;;8.07;2.72;;;;;;;16.48;73.96;100996.41;5033536;28;20057;-44
2022/07/12 03:27:48;;;;;;;5.07;3.00;;;;;;;16.43;74.16;100990.09;5032068;28;20025;-44
2022/07/12 03:30:15;;;;;;;7.32;3.08;;;;;;;16.36;75.13;101001.03;5033700;28;20034;-46
2022/07/12 03:32:42;;;;;;;7.90;3.40;;;;;;;16.36;75.01;101001.03;5023606;28;20493;-44
2022/07/12 03:35:09;;;;;;;7.25;3.33;;;;;;;16.23;75.27;100998.63;5023381;28;20041;-43
2022/07/12 03:37:49;;;;;;;7.90;3.10;;;;;;;16.28;75.24;101001.44;5027680;28;20458;-45
2022/07/12 03:40:17;;;;;;;5.75;3.28;;;;;;;16.20;75.37;101012.59;5020802;28;20109;-47
2022/07/12 03:42:44;;;;;;;5.43;2.60;;;;;;;16.07;76.04;101009.09;5026602;28;20084;-44
2022/07/12 03:45:12;;;;;;;8.15;2.67;;;;;;;16.00;76.37;101011.13;5021051;28;20390;-45
2022/07/12 03:47:39;;;;;;;4.68;2.60;;;;;;;15.91;76.91;101011.72;5012229;28;20025;-43
2022/07/12 03:50:07;;;;;;;15.65;4.13;;;;;;;16.05;76.29;101013.94;5012107;28;20037;-44
2022/07/12 03:52:34;;;;;;;7.43;3.17;;;;;;;16.01;76.17;101018.16;5020595;28;20026;-46
2022/07/12 03:55:04;;;;;;;5.88;2.90;;;;;;;15.96;76.31;101011.84;5022650;28;20478;-45
2022/07/12 03:57:30;;;;;;;5.88;3.20;;;;;;;15.78;77.29;101026.31;5011393;28;20029;-45
2022/07/12 03:59:57;;;;;;;4.30;2.72;;;;;;;15.86;77.20;101017.00;5014483;28;20033;-44
2022/07/12 04:02:24;;;;;;;7.07;2.97;;;;;;;15.86;76.99;101023.22;5016812;28;20033;-46
2022/07/12 04:04:51;;;;;;;6.72;2.58;;;;;;;15.74;77.45;101022.41;5032956;28;20044;-47
2022/07/12 04:07:18;;;;;;;9.27;3.17;;;;;;;15.73;77.15;101020.78;5022727;28;20052;-44
2022/07/12 04:09:45;;;;;;;5.38;3.20;;;;;;;15.66;77.84;101025.50;5032479;28;20057;-45
2022/07/12 04:12:11;;;;;;;5.72;2.83;;;;;;;15.71;78.06;101033.66;5029887;28;20021;-44
2022/07/12 04:14:37;;;;;;;6.43;2.90;;;;;;;15.57;78.19;101033.88;5019570;28;20038;-44
2022/07/12 04:17:05;;;;;;;5.43;2.35;;;;;;;15.61;78.47;101041.53;5015450;28;20033;-44
2022/07/12 04:19:32;;;;;;;5.60;2.30;;;;;;;15.56;78.49;101042.22;5013666;28;20072;-43
2022/07/12 04:21:59;;;;;;;5.47;2.58;;;;;;;15.60;78.61;101040.69;5032491;28;20072;-47
2022/07/12 04:24:26;;;;;;;5.70;2.28;;;;;;;15.53;78.52;101042.69;5031251;28;20082;-44
2022/07/12 04:26:53;;;;;;;7.20;3.33;;;;;;;15.53;78.68;101046.19;5029324;28;20386;-44
2022/07/12 04:29:20;;;;;;;6.97;2.90;;;;;;;15.31;79.97;101045.13;5031902;28;20060;-44
2022/07/12 04:31:46;;;;;;;5.63;2.58;;;;;;;15.48;79.02;101053.34;5025110;28;20022;-47
2022/07/12 04:34:16;;;;;;;5.60;1.92;;;;;;;15.53;78.54;101058.88;5012494;28;20435;-44
2022/07/12 04:36:46;;;;;;;7.32;2.60;;;;;;;15.45;79.20;101045.72;5027778;28;20041;-45
2022/07/12 04:39:12;;;;;;;5.10;2.65;;;;;;;15.43;79.55;101037.84;5032285;28;20061;-46
2022/07/12 04:41:39;;;;;;;4.63;2.70;;;;;;;15.46;78.90;101042.78;5031103;28;20075;-44
2022/07/12 04:44:08;;;;;;;6.25;2.72;;;;;;;15.45;79.01;101046.56;5031752;28;20025;-47
2022/07/12 04:46:34;;;;;;;5.75;2.50;;;;;;;15.37;79.14;101049.56;5027786;28;20037;-45
2022/07/12 04:49:00;;;;;;;6.10;2.60;;;;;;;15.35;79.28;101057.09;5022214;28;20433;-47
2022/07/12 04:51:27;;;;;;;4.90;2.30;;;;;;;15.26;79.14;101053.91;5019408;28;20222;-45
2022/07/12 04:53:53;;;;;;;5.65;2.50;;;;;;;15.28;79.23;101062.59;5019493;28;20029;-44
2022/07/12 04:56:19;;;;;;;6.65;2.70;;;;;;;15.23;79.59;101067.03;5012348;28;20030;-45
2022/07/12 04:58:46;;;;;;;3.65;2.60;;;;;;;15.24;79.56;101064.09;5017579;28;20104;-45
2022/07/12 05:01:12;;;;;;;3.80;3.05;;;;;;;15.26;79.86;101071.94;5029220;28;20041;-43
2022/07/12 05:03:39;;;;;;;7.85;3.05;;;;;;;15.25;79.65;101068.44;5030840;28;20557;-43
2022/07/12 05:06:05;;;;;;;4.43;2.30;;;;;;;15.25;79.53;101081.09;5030126;28;20045;-45
2022/07/12 05:08:31;;;;;;;5.13;2.40;;;;;;;15.26;79.55;101085.44;5012257;28;20029;-44
2022/07/12 05:10:58;;;;;;;5.70;2.70;;;;;;;15.24;80.13;101084.84;5031768;28;20461;-44
2022/07/12 05:13:24;;;;;;;4.28;2.60;;;;;;;15.28;79.89;101084.16;5029946;28;20025;-46
2022/07/12 05:15:50;;;;;;;5.63;2.65;;;;;;;15.28;79.52;101086.03;5030041;28;20036;-45
2022/07/12 05:18:16;;;;;;;6.28;2.35;;;;;;;15.23;79.71;101085.91;5029473;28;20026;-44
2022/07/12 05:20:43;;;;;;;4.18;2.17;;;;;;;15.41;79.22;101087.69;5031696;28;20104;-43
2022/07/12 05:23:09;;;;;;;4.95;1.92;;;;;;;15.36;79.22;101088.41;5030868;28;20037;-44
2022/07/12 05:25:36;;;;;;;5.10;2.50;;;;;;;15.37;79.05;101083.81;5030381;28;20068;-47
2022/07/12 05:28:02;;;;;;;4.60;2.13;;;;;;;15.46;78.68;101090.53;5028958;28;20116;-45
2022/07/12 05:30:28;;;;;;;4.57;1.92;;;;;;;15.40;78.61;101094.16;5013424;28;20389;-45
2022/07/12 05:32:55;;;;;;;5.43;2.05;;;;;;;15.36;78.82;101099.19;5028032;28;20033;-45
2022/07/12 05:35:21;;;;;;;4.22;2.10;;;;;;;15.37;78.55;101100.81;5031299;28;20104;-44
2022/07/12 05:37:47;;;;;;;5.40;2.38;;;;;;;15.39;78.57;101095.22;5026304;28;20044;-44
2022/07/12 05:40:13;;;;;;;3.00;2.08;;;;;;;15.38;78.62;101096.25;5030160;28;20036;-44
2022/07/12 05:42:40;;;;;;;4.30;2.13;;;;;;;15.38;78.62;101080.06;5034827;28;20033;-43
2022/07/12 05:45:07;;;;;;;4.50;2.60;;;;;;;15.42;78.59;101090.16;5033531;28;20064;-46
2022/07/12 05:47:33;;;;;;;3.55;2.17;;;;;;;15.19;79.65;101092.81;5031903;28;20594;-45
2022/07/12 05:50:00;;;;;;;4.32;2.30;;;;;;;15.10;80.37;101089.59;5026775;28;20119;-48
2022/07/12 05:55:10;;;;;;;5.88;3.22;;;;;;;15.15;79.97;101094.31;5035544;28;20043;-44
2022/07/12 05:57:37;;;;;;;4.95;2.40;;;;;;;15.09;80.74;101093.34;5024535;28;20029;-46
2022/07/12 06:00:04;;;;;;;4.43;2.30;;;;;;;15.13;80.36;101089.16;5033241;28;20088;-44
2022/07/12 06:02:31;;;;;;;5.18;1.95;;;;;;;15.21;79.99;101085.31;5035168;28;20040;-46
2022/07/12 06:04:57;;;;;;;4.65;2.22;;;;;;;15.13;80.32;101089.16;5033220;28;20025;-44
2022/07/12 06:07:23;;;;;;;5.53;2.45;;;;;;;15.14;80.46;101081.88;5034543;28;20370;-44
2022/07/12 06:09:49;;;;;;;5.30;2.33;;;;;;;15.13;80.81;101083.78;5029808;28;20386;-43
2022/07/12 06:12:16;;;;;;;5.80;2.50;;;;;;;15.16;81.03;101086.03;5033738;28;20536;-44
2022/07/12 06:14:42;;;;;;;3.35;1.95;;;;;;;15.11;80.64;101076.97;5033367;28;20439;-44
2022/07/12 06:17:08;;;;;;;5.85;2.10;;;;;;;15.05;80.24;101076.84;5034581;28;20033;-44
2022/07/12 06:19:35;;;;;;;2.95;1.75;;;;;;;15.05;80.30;101082.22;5031861;28;20021;-44
2022/07/12 06:22:01;;;;;;;5.78;2.13;;;;;;;15.00;80.73;101076.72;5034783;28;20021;-47
2022/07/12 06:24:27;;;;;;;3.00;1.80;;;;;;;14.90;81.04;101079.13;5032792;28;20135;-48
2022/07/12 06:26:54;;;;;;;3.17;1.80;;;;;;;14.84;81.42;101071.97;5016576;28;20032;-43
2022/07/12 06:29:20;;;;;;;4.15;1.83;;;;;;;14.90;81.13;101078.31;5030713;28;20101;-43
2022/07/12 06:31:46;;;;;;;3.38;1.55;;;;;;;14.90;81.49;101073.72;5033595;28;20038;-43
2022/07/12 06:34:12;;;;;;;3.72;1.83;;;;;;;14.90;81.66;101072.91;5032948;28;20071;-44
2022/07/12 06:36:39;;;;;;;2.90;1.77;;;;;;;14.91;81.87;101079.94;5034451;28;20025;-43
2022/07/12 06:39:05;;;;;;;4.00;1.67;;;;;;;14.87;82.14;101071.47;5014463;28;20021;-47
2022/07/12 06:41:31;;;;;;;4.68;2.20;;;;;;;14.88;82.00;101073.16;5014780;28;20117;-45
2022/07/12 06:43:57;;;;;;;2.55;1.60;;;;;;;14.98;81.01;101073.41;5032202;28;20029;-47
2022/07/12 06:46:23;;;;;;;4.82;1.83;;;;;;;14.98;81.47;101077.97;5034050;28;20026;-44
2022/07/12 06:48:50;;;;;;;4.03;1.60;;;;;;;14.95;81.17;101064.97;5032960;28;20554;-44
2022/07/12 06:51:16;;;;;;;4.85;1.50;;;;;;;14.91;81.74;101067.28;5033162;28;20036;-45
2022/07/12 06:53:42;;;;;;;4.43;2.25;;;;;;;14.85;81.75;101073.59;5034148;28;20486;-47
2022/07/12 06:56:08;;;;;;;5.95;2.15;;;;;;;14.93;81.53;101072.44;5031834;28;20076;-44
2022/07/12 06:58:35;;;;;;;4.85;2.28;;;;;;;14.89;81.60;101064.00;5034239;28;20476;-45
2022/07/12 07:01:01;;;;;;;5.25;2.00;;;;;;;14.91;81.79;101056.50;5032807;28;20029;-45
2022/07/12 07:03:27;;;;;;;3.35;2.08;;;;;;;14.95;81.93;101073.88;5034095;28;20539;-47
2022/07/12 07:05:53;;;;;;;5.82;2.58;;;;;;;14.84;82.55;101069.25;5031355;28;20053;-43
2022/07/12 07:08:20;;;;;;;2.40;1.50;;;;;;;14.82;82.22;101062.44;5033523;28;20029;-44
2022/07/12 07:10:46;;;;;;;3.17;1.70;;;;;;;14.75;82.46;101063.34;5032372;28;20112;-47
2022/07/12 07:13:13;;;;;;;3.55;1.70;;;;;;;14.71;82.74;101072.97;5033338;28;20108;-43
2022/07/12 07:15:40;;;;;;;3.97;1.40;;;;;;;14.75;82.65;101068.75;5032981;28;20438;-48
2022/07/12 07:18:07;;;;;;;2.47;1.45;;;;;;;14.82;82.39;101060.56;5033404;28;20499;-46
2022/07/12 07:20:34;;;;;;;3.22;1.90;;;;;;;14.84;82.29;101058.47;5030135;28;20500;-44
2022/07/12 07:23:00;;;;;;;3.08;2.00;;;;;;;14.82;82.81;101054.34;5033622;28;20025;-44
2022/07/12 07:25:26;;;;;;;2.70;1.75;;;;;;;14.86;82.72;101053.66;5032029;28;20473;-46
2022/07/12 07:27:53;;;;;;;3.67;1.92;;;;;;;14.92;82.83;101041.97;5033490;28;20086;-48
2022/07/12 07:33:03;;;;;;;2.97;1.80;;;;;;;14.88;82.20;101054.28;5032798;28;20032;-44
2022/07/12 07:35:30;;;;;;;2.90;1.90;;;;;;;14.84;82.21;101055.78;5033214;28;20831;-44
2022/07/12 07:37:56;;;;;;;3.58;1.67;;;;;;;14.77;82.23;101055.06;5024626;28;20034;-44
2022/07/12 07:40:22;;;;;;;2.53;1.48;;;;;;;14.80;82.42;101057.28;5032013;28;20029;-47
2022/07/12 07:42:48;;;;;;;2.90;1.60;;;;;;;14.77;82.44;101057.75;5032590;28;20520;-44
2022/07/12 07:45:15;;;;;;;3.13;1.83;;;;;;;14.84;82.64;101053.09;5013460;28;20030;-44
2022/07/12 07:47:46;;;;;;;3.28;1.50;;;;;;;14.84;82.22;101061.19;5013198;28;20026;-45
2022/07/12 07:50:12;;;;;;;2.35;1.40;;;;;;;14.78;81.84;101062.09;5028885;28;20108;-45
2022/07/12 07:52:38;;;;;;;3.25;1.65;;;;;;;14.87;81.56;101063.41;5032824;28;20071;-46
2022/07/12 07:55:05;;;;;;;2.85;1.48;;;;;;;14.85;81.26;101057.44;5032000;28;20041;-44
2022/07/12 07:57:31;;;;;;;2.08;1.60;;;;;;;14.86;81.71;101067.16;5032706;28;20108;-48
2022/07/12 07:59:58;;;;;;;3.35;1.60;;;;;;;14.85;81.89;101065.50;5031121;28;20022;-47
2022/07/12 08:02:24;;;;;;;2.65;1.48;;;;;;;14.72;82.13;101055.75;5031104;28;20060;-45
2022/07/12 08:04:51;;;;;;;2.00;1.58;;;;;;;14.76;81.73;101053.41;5032405;28;20065;-44
2022/07/12 08:07:17;;;;;;;2.38;1.58;;;;;;;14.67;81.96;101052.91;5031139;28;20046;-43
2022/07/12 08:09:44;;;;;;;2.15;1.40;;;;;;;14.69;81.86;101058.06;5032240;28;20060;-43
2022/07/12 08:12:10;;;;;;;1.95;1.15;;;;;;;14.64;82.18;101052.53;5013248;28;20525;-45
2022/07/12 08:14:36;;;;;;;3.75;1.80;;;;;;;14.82;81.98;101052.47;5032643;28;20037;-46
2022/07/12 08:17:03;;;;;;;3.35;1.65;;;;;;;14.77;82.05;101055.06;5031047;28;20037;-44
2022/07/12 08:19:29;;;;;;;2.20;1.15;;;;;;;14.82;81.98;101062.44;5031414;28;20025;-47
2022/07/12 08:21:55;;;;;;;3.53;1.60;;;;;;;14.82;82.39;101060.56;5029913;28;20029;-44
2022/07/12 08:24:21;;;;;;;3.35;1.58;;;;;;;14.75;82.41;101062.53;5032399;28;20025;-43
2022/07/12 08:26:48;;;;;;;2.65;1.30;;;;;;;14.74;81.96;101066.28;5012761;28;20434;-47
2022/07/12 08:29:14;;;;;;;1.70;1.15;;;;;;;14.86;81.49;101061.75;5031325;28;20421;-44
2022/07/12 08:31:40;;;;;;;2.65;1.20;;;;;;;14.76;81.55;101066.88;5032179;28;20108;-47
2022/07/12 08:34:07;;;;;;;1.80;1.10;;;;;;;14.78;81.74;101060.22;5031431;28;20028;-43
2022/07/12 08:36:33;;;;;;;3.92;1.15;;;;;;;14.83;81.92;101066.81;5031869;28;20033;-44
2022/07/12 08:38:59;;;;;;;3.42;1.73;;;;;;;14.84;81.58;101071.13;5031998;28;20021;-46
2022/07/12 08:41:26;;;;;;;4.45;1.48;;;;;;;14.93;81.20;101075.97;5031355;28;20040;-44
2022/07/12 08:43:52;;;;;;;3.22;1.33;;;;;;;14.86;81.34;101069.03;5032233;28;20029;-44
2022/07/12 08:46:18;;;;;;;1.92;1.30;;;;;;;14.90;81.46;101065.66;5028782;28;20112;-46
2022/07/12 08:48:44;;;;;;;3.67;1.40;;;;;;;14.93;80.98;101072.44;5032200;28;20025;-44
2022/07/12 08:51:19;;;;;;;1.92;1.30;;;;;;;15.05;80.12;101076.84;5030698;28;20025;-43
2022/07/12 08:53:45;;;;;;;2.10;1.23;;;;;;;15.06;80.01;101080.34;5031888;28;20029;-43
2022/07/12 08:56:33;;;;;;;2.05;1.20;;;;;;;15.02;80.06;101077.28;5030970;28;20476;-47
2022/07/12 08:59:19;;;;;;;5.72;1.38;;;;;;;15.04;80.19;101072.47;5031705;28;20064;-46
2022/07/12 09:01:55;;;;;;;2.78;1.45;;;;;;;15.13;79.75;101075.69;5027969;28;20029;-46
2022/07/12 09:04:27;;;;;;;2.03;1.10;;;;;;;15.16;79.44;101071.72;5031931;28;20025;-45
2022/07/12 09:06:54;;;;;;;2.28;0.90;;;;;;;15.18;79.39;101070.41;5030743;28;20405;-44
2022/07/12 09:09:31;;;;;;;1.85;1.23;;;;;;;15.18;78.82;101064.22;5030836;28;20025;-45
2022/07/12 09:11:58;;;;;;;1.98;1.10;;;;;;;15.19;78.97;101077.44;5021022;28;20037;-45
2022/07/12 09:14:26;;;;;;;3.42;1.23;;;;;;;15.17;78.67;101070.66;5030335;28;20035;-47
2022/07/12 09:17:12;;;;;;;1.65;1.02;;;;;;;15.24;78.66;101074.06;5030254;28;20033;-44
2022/07/12 09:19:39;;;;;;;3.25;1.38;;;;;;;15.42;77.63;101070.47;5030968;28;20017;-44
2022/07/12 09:22:18;;;;;;;2.60;1.10;;;;;;;15.40;77.51;101068.00;5031747;28;20026;-44
2022/07/12 09:24:44;;;;;;;2.40;1.10;;;;;;;15.39;77.31;101069.06;5030527;28;20053;-48
2022/07/12 09:27:10;;;;;;;5.22;1.20;;;;;;;15.34;77.19;101074.34;5031648;28;20397;-47
2022/07/12 09:29:50;;;;;;;1.75;0.82;;;;;;;15.40;76.72;101073.41;5029881;28;20092;-44
2022/07/12 09:37:48;;;;;;;2.53;1.20;;;;;;;15.47;76.84;101063.31;5031877;28;20103;-44
2022/07/12 09:40:15;;;;;;;1.80;1.00;;;;;;;15.59;76.47;101072.22;5030840;28;20076;-44
2022/07/12 09:42:42;;;;;;;1.25;0.90;;;;;;;15.49;76.59;101066.63;5031713;28;20053;-46
2022/07/12 09:45:10;;;;;;;1.60;0.90;;;;;;;15.54;75.92;101064.03;5030707;28;20120;-45
2022/07/12 09:47:36;;;;;;;0.98;0.90;;;;;;;15.52;76.05;101068.03;5031314;28;20021;-43
2022/07/12 09:50:06;;;;;;;2.42;1.00;;;;;;;15.52;75.76;101071.53;5030054;28;20029;-44
2022/07/12 09:52:35;;;;;;;3.05;1.30;;;;;;;15.59;75.64;101066.84;5031794;28;20024;-47
2022/07/12 09:55:02;;;;;;;1.92;0.98;;;;;;;15.72;75.12;101067.72;5030782;28;20124;-44
2022/07/12 09:57:33;;;;;;;1.35;0.85;;;;;;;15.73;74.85;101072.06;5031440;28;20095;-44
2022/07/12 10:00:01;;;;;;;3.22;0.90;;;;;;;15.83;74.97;101066.91;5030502;28;20064;-47
2022/07/12 10:02:27;;;;;;;1.35;1.10;;;;;;;15.86;74.61;101062.91;5031519;28;20022;-45
2022/07/12 10:04:55;;;;;;;1.27;0.95;;;;;;;15.75;74.96;101059.13;5021989;28;20096;-44
2022/07/12 10:07:21;;;;;;;3.05;1.02;;;;;;;15.87;74.24;101059.94;5010653;28;20081;-44
2022/07/12 10:09:51;;;;;;;2.55;1.27;;;;;;;15.83;74.67;101062.31;5023119;28;20029;-48
2022/07/12 10:12:19;;;;;;;1.52;1.15;;;;;;;15.80;74.71;101062.78;5011868;28;20054;-46
2022/07/12 10:14:46;;;;;;;1.85;1.15;;;;;;;15.86;74.60;101058.31;5023642;28;20087;-45
2022/07/12 10:17:14;;;;;;;1.42;0.90;;;;;;;15.92;73.88;101059.25;5030940;28;20025;-44
2022/07/12 10:19:40;;;;;;;1.65;0.88;;;;;;;15.89;74.20;101059.75;5028020;28;20500;-44
2022/07/12 10:22:19;;;;;;;1.77;0.80;;;;;;;15.93;73.83;101061.69;5028479;28;20048;-45
2022/07/12 10:24:51;;;;;;;1.15;0.85;;;;;;;15.93;73.80;101067.09;5024188;28;20029;-47
2022/07/12 10:27:19;;;;;;;2.95;1.00;;;;;;;15.94;73.27;101066.06;5018462;28;20037;-46
2022/07/12 10:29:48;;;;;;;2.00;0.93;;;;;;;15.93;73.17;101061.69;5025533;28;20026;-45
2022/07/12 10:32:35;;;;;;;2.35;1.00;;;;;;;15.73;74.14;101064.78;5014855;28;20026;-45
2022/07/12 10:35:06;;;;;;;1.33;1.08;;;;;;;15.78;74.06;101058.69;5028418;28;20041;-44
2022/07/12 10:37:34;;;;;;;1.83;0.80;;;;;;;15.73;73.98;101055.88;5033240;28;20064;-45
2022/07/12 10:40:17;;;;;;;1.20;0.70;;;;;;;15.82;73.63;101059.84;5034441;28;20041;-47
2022/07/12 10:43:04;;;;;;;1.35;0.80;;;;;;;15.83;73.64;101061.50;5033452;28;20025;-44
2022/07/12 10:45:32;;;;;;;2.80;0.80;;;;;;;15.80;73.78;101065.47;5034405;28;20075;-45
2022/07/12 10:48:01;;;;;;;0.85;0.65;;;;;;;15.75;74.06;101059.13;5019220;28;20032;-45
2022/07/12 10:51:01;;;;;;;3.70;0.90;;;;;;;15.74;74.42;101057.50;5034197;28;20389;-45
2022/07/12 10:53:34;;;;;;;1.50;0.90;;;;;;;15.79;74.43;101057.63;5028282;28;20052;-44
2022/07/12 10:56:11;;;;;;;1.08;0.63;;;;;;;15.84;73.96;101057.75;5034048;28;20030;-45
2022/07/12 10:58:46;;;;;;;1.27;0.77;;;;;;;15.76;74.62;101060.78;5032976;28;20040;-46
2022/07/12 11:01:21;;;;;;;0.88;0.70;;;;;;;15.69;74.83;101065.47;5033385;28;20450;-44
2022/07/12 11:04:03;;;;;;;1.10;1.00;;;;;;;15.79;74.10;101065.72;5033702;28;20037;-45
2022/07/12 11:06:29;;;;;;;1.50;0.70;;;;;;;15.86;73.93;101068.28;5032802;28;20068;-46
2022/07/12 11:09:00;;;;;;;1.67;0.73;;;;;;;15.92;73.67;101065.47;5033886;28;20025;-45
2022/07/12 11:11:43;;;;;;;0.70;0.60;;;;;;;15.66;74.54;101066.78;5032980;28;20132;-43
2022/07/12 11:14:11;;;;;;;0.95;0.70;;;;;;;15.86;74.03;101066.41;5033786;28;20470;-43
2022/07/12 11:16:44;;;;;;;1.35;0.77;;;;;;;15.73;74.45;101072.06;5032462;28;20859;-45
2022/07/12 11:19:10;;;;;;;1.45;0.57;;;;;;;15.61;74.74;101066.63;5033770;28;20057;-46
2022/07/12 11:21:37;;;;;;;2.78;0.70;;;;;;;15.68;74.03;101071.94;5033027;28;20493;-43
2022/07/12 11:24:19;;;;;;;1.48;0.82;;;;;;;15.50;75.35;101065.56;5017434;28;20033;-45
2022/07/12 11:26:47;;;;;;;1.08;0.90;;;;;;;15.64;74.93;101068.06;5005718;28;20068;-44
2022/07/12 11:29:13;;;;;;;2.00;0.80;;;;;;;15.70;74.30;101067.13;5033840;28;20031;-45
2022/07/12 11:31:40;;;;;;;0.82;0.65;;;;;;;15.80;74.03;101070.88;5032026;28;20026;-45
2022/07/12 11:34:06;;;;;;;1.10;0.60;;;;;;;15.75;74.19;101064.53;5033252;28;20083;-43
2022/07/12 11:36:33;;;;;;;1.35;0.90;;;;;;;15.73;74.29;101066.66;5033255;28;20021;-46
2022/07/12 11:39:02;;;;;;;2.28;0.75;;;;;;;15.68;74.08;101063.84;5032503;28;20146;-47